createdAt,value
2018-05-03T00:01:48.257Z,14.42
2018-05-03T00:04:15.873Z,14.40
2018-05-03T00:06:43.487Z,14.35
2018-05-03T00:09:11.105Z,14.29
2018-05-03T00:11:38.721Z,14.27
2018-05-03T00:14:06.293Z,14.30
2018-05-03T00:16:33.852Z,14.27
2018-05-03T00:19:01.421Z,14.23
2018-05-03T00:21:29.042Z,14.24
2018-05-03T00:23:56.653Z,14.22
2018-05-03T00:26:24.268Z,14.18
2018-05-03T00:28:51.828Z,14.14
2018-05-03T00:31:19.392Z,14.12
2018-05-03T00:33:47.013Z,14.11
2018-05-03T00:36:14.590Z,14.08
2018-05-03T00:38:42.151Z,14.05
2018-05-03T00:41:09.746Z,14.00
2018-05-03T00:43:37.354Z,13.96
2018-05-03T00:46:04.933Z,13.88
2018-05-03T00:48:32.488Z,13.84
2018-05-03T00:51:00.053Z,13.82
2018-05-03T00:53:27.677Z,13.78
2018-05-03T00:55:55.293Z,13.75
2018-05-03T00:58:22.904Z,13.76
2018-05-03T01:00:50.460Z,13.76
2018-05-03T01:03:18.020Z,13.75
2018-05-03T01:05:45.659Z,13.78
2018-05-03T01:08:13.227Z,13.74
2018-05-03T01:10:40.908Z,13.79
2018-05-03T01:13:08.469Z,13.82
2018-05-03T01:15:36.089Z,13.83
2018-05-03T01:18:03.713Z,13.87
2018-05-03T01:20:31.308Z,13.94
2018-05-03T01:22:58.937Z,13.96
2018-05-03T01:25:26.492Z,13.96
2018-05-03T01:27:54.108Z,13.93
2018-05-03T01:30:21.725Z,13.98
2018-05-03T01:32:49.349Z,13.99
2018-05-03T01:35:28.588Z,14.02
2018-05-03T01:37:56.148Z,14.04
2018-05-03T01:40:23.715Z,14.05
2018-05-03T01:42:51.284Z,14.12
2018-05-03T01:45:18.970Z,14.12
2018-05-03T01:47:46.528Z,14.09
2018-05-03T01:50:14.084Z,14.07
2018-05-03T01:52:41.653Z,14.02
2018-05-03T01:55:09.213Z,13.94
2018-05-03T01:57:36.780Z,13.95
2018-05-03T02:00:04.350Z,13.89
2018-05-03T02:02:32.040Z,13.81
2018-05-03T02:04:59.600Z,13.77
2018-05-03T02:07:27.216Z,13.78
2018-05-03T02:09:54.784Z,13.80
2018-05-03T02:12:22.344Z,13.77
2018-05-03T02:14:49.969Z,13.69
2018-05-03T02:17:17.513Z,13.73
2018-05-03T02:19:45.185Z,13.74
2018-05-03T02:22:12.829Z,13.72
2018-05-03T02:24:40.468Z,13.70
2018-05-03T02:27:08.096Z,13.66
2018-05-03T02:29:35.656Z,13.61
2018-05-03T02:32:03.287Z,13.59
2018-05-03T02:34:30.909Z,13.56
2018-05-03T02:36:58.589Z,13.50
2018-05-03T02:39:26.215Z,13.45
2018-05-03T02:41:53.842Z,13.39
2018-05-03T02:44:21.469Z,13.30
2018-05-03T02:46:49.029Z,13.24
2018-05-03T02:49:16.657Z,13.21
2018-05-03T02:51:44.287Z,13.20
2018-05-03T02:54:11.900Z,13.20
2018-05-03T02:56:39.517Z,13.18
2018-05-03T02:59:18.876Z,13.16
2018-05-03T03:01:58.094Z,13.19
2018-05-03T03:08:10.229Z,13.23
2018-05-03T03:14:21.723Z,13.28
2018-05-03T03:17:06.758Z,13.35
2018-05-03T03:19:55.557Z,13.41
2018-05-03T03:22:40.754Z,13.48
2018-05-03T03:28:36.661Z,13.51
2018-05-03T03:31:22.007Z,13.52
2018-05-03T03:34:01.478Z,13.60
2018-05-03T03:39:41.937Z,13.79
2018-05-03T03:42:21.341Z,13.78
2018-05-03T03:44:48.957Z,13.71
2018-05-03T03:47:16.518Z,13.74
2018-05-03T03:49:44.081Z,13.81
2018-05-03T03:52:11.647Z,13.88
2018-05-03T03:54:39.203Z,13.92
2018-05-03T03:57:06.768Z,14.03
2018-05-03T03:59:34.328Z,14.21
2018-05-03T04:02:02.033Z,14.43
2018-05-03T04:04:29.604Z,14.62
2018-05-03T04:06:57.165Z,14.80
2018-05-03T04:09:24.737Z,14.90
2018-05-03T04:11:52.300Z,15.08
2018-05-03T04:14:19.874Z,15.22
2018-05-03T04:16:47.428Z,15.34
2018-05-03T04:19:26.706Z,15.44
2018-05-03T04:22:06.098Z,16.07
2018-05-03T04:24:45.355Z,18.19
2018-05-03T04:27:12.916Z,20.18
2018-05-03T04:29:40.546Z,21.35
2018-05-03T04:32:08.161Z,22.73
2018-05-03T04:34:35.785Z,23.99
2018-05-03T04:37:03.371Z,24.48
2018-05-03T04:39:31.886Z,25.30
2018-05-03T04:41:59.456Z,25.85
2018-05-03T04:44:27.018Z,25.85
2018-05-03T04:46:54.668Z,25.59
2018-05-03T04:49:22.239Z,25.47
2018-05-03T04:51:49.909Z,25.72
2018-05-03T04:54:17.599Z,26.68
2018-05-03T04:56:45.125Z,26.97
2018-05-03T04:59:12.693Z,27.01
2018-05-03T05:01:40.249Z,27.45
2018-05-03T05:04:07.895Z,28.05
2018-05-03T05:06:35.521Z,28.30
2018-05-03T05:09:03.176Z,28.68
2018-05-03T05:11:30.737Z,28.95
2018-05-03T05:13:58.302Z,28.85
2018-05-03T05:16:25.868Z,29.08
2018-05-03T05:18:53.428Z,29.68
2018-05-03T05:21:21.056Z,28.82
2018-05-03T05:23:48.622Z,28.64
2018-05-03T05:26:16.338Z,28.79
2018-05-03T05:28:43.957Z,28.76
2018-05-03T05:31:11.509Z,29.14
2018-05-03T05:33:39.133Z,29.03
2018-05-03T05:36:06.745Z,29.54
2018-05-03T05:38:34.403Z,29.75
2018-05-03T05:41:02.021Z,29.85
2018-05-03T05:43:29.631Z,30.72
2018-05-03T05:45:57.248Z,30.90
2018-05-03T05:48:24.865Z,31.26
2018-05-03T05:50:52.432Z,31.27
2018-05-03T05:53:20.029Z,30.77
2018-05-03T05:55:47.655Z,30.60
2018-05-03T05:58:15.212Z,31.35
2018-05-03T06:00:42.893Z,31.81
2018-05-03T06:03:10.517Z,32.50
2018-05-03T06:05:38.069Z,33.20
2018-05-03T06:08:05.635Z,33.66
2018-05-03T06:10:33.185Z,33.58
2018-05-03T06:13:00.813Z,33.03
2018-05-03T06:15:28.371Z,33.38
2018-05-03T06:17:56.040Z,33.15
2018-05-03T06:20:23.616Z,32.22
2018-05-03T06:22:51.265Z,30.10
2018-05-03T06:25:18.889Z,28.70
2018-05-03T06:27:46.452Z,27.67
2018-05-03T06:30:14.078Z,26.48
2018-05-03T06:32:41.633Z,25.90
2018-05-03T06:35:09.262Z,25.45
2018-05-03T06:37:36.805Z,25.17
2018-05-03T06:40:04.377Z,25.14
2018-05-03T06:42:31.944Z,24.97
2018-05-03T06:44:59.555Z,25.36
2018-05-03T06:47:27.185Z,25.59
2018-05-03T06:49:54.724Z,26.42
2018-05-03T06:52:22.339Z,27.26
2018-05-03T06:54:49.892Z,28.93
2018-05-03T06:57:17.439Z,29.51
2018-05-03T06:59:45.061Z,29.27
2018-05-03T07:02:12.615Z,29.86
2018-05-03T07:04:40.180Z,29.86
2018-05-03T07:07:07.740Z,29.12
2018-05-03T07:09:35.413Z,28.08
2018-05-03T07:12:03.013Z,27.62
2018-05-03T07:14:30.564Z,26.95
2018-05-03T07:16:58.169Z,26.53
2018-05-03T07:19:25.786Z,26.26
2018-05-03T07:21:53.419Z,26.06
2018-05-03T07:24:20.994Z,25.92
2018-05-03T07:26:48.563Z,25.87
2018-05-03T07:29:16.187Z,25.83
2018-05-03T07:31:43.716Z,25.87
2018-05-03T07:34:11.351Z,25.71
2018-05-03T07:36:38.903Z,25.93
2018-05-03T07:39:06.511Z,26.10
2018-05-03T07:41:34.070Z,26.56
2018-05-03T07:44:01.629Z,26.90
2018-05-03T07:46:29.197Z,27.53
2018-05-03T07:48:56.821Z,27.54
2018-05-03T07:51:24.388Z,27.30
2018-05-03T07:53:51.949Z,27.35
2018-05-03T07:56:19.559Z,27.06
2018-05-03T07:58:47.116Z,27.05
2018-05-03T08:01:14.676Z,26.79
2018-05-03T08:03:42.252Z,26.61
2018-05-03T08:06:09.816Z,27.14
2018-05-03T08:08:37.380Z,27.13
2018-05-03T08:11:04.946Z,27.06
2018-05-03T08:13:32.589Z,27.12
2018-05-03T08:16:00.148Z,27.29
2018-05-03T08:18:27.808Z,27.19
2018-05-03T08:20:55.373Z,27.48
2018-05-03T08:23:22.937Z,27.48
2018-05-03T08:25:50.496Z,27.57
2018-05-03T08:28:18.048Z,27.48
2018-05-03T08:30:45.676Z,27.47
2018-05-03T08:33:13.233Z,27.47
2018-05-03T08:35:40.845Z,27.21
2018-05-03T08:38:08.473Z,27.14
2018-05-03T08:40:36.033Z,27.19
2018-05-03T08:43:03.661Z,27.39
2018-05-03T08:45:31.290Z,27.62
2018-05-03T08:47:58.958Z,27.88
2018-05-03T08:50:26.512Z,27.96
2018-05-03T08:52:54.076Z,28.15
2018-05-03T08:55:21.698Z,28.17
2018-05-03T08:57:49.264Z,28.07
2018-05-03T09:00:16.836Z,28.05
2018-05-03T09:02:44.398Z,28.05
2018-05-03T09:05:12.057Z,28.28
2018-05-03T09:07:39.705Z,28.31
2018-05-03T09:10:07.288Z,28.13
2018-05-03T09:12:34.853Z,28.22
2018-05-03T09:15:02.477Z,28.37
2018-05-03T09:17:30.118Z,28.51
2018-05-03T09:19:57.737Z,28.61
2018-05-03T09:22:25.456Z,28.69
2018-05-03T09:24:52.964Z,28.73
2018-05-03T09:27:20.540Z,29.00
2018-05-03T09:29:48.134Z,29.08
2018-05-03T09:32:15.754Z,28.80
2018-05-03T09:34:43.341Z,28.88
2018-05-03T09:37:10.901Z,29.04
2018-05-03T09:39:38.456Z,29.21
2018-05-03T09:42:06.030Z,29.31
2018-05-03T09:44:33.709Z,29.74
2018-05-03T09:47:01.403Z,30.12
2018-05-03T09:49:28.978Z,30.30
2018-05-03T09:51:56.598Z,30.58
2018-05-03T09:54:24.222Z,31.12
2018-05-03T09:56:51.766Z,31.54
2018-05-03T09:59:19.346Z,32.02
2018-05-03T10:01:46.978Z,32.27
2018-05-03T10:04:15.109Z,32.31
2018-05-03T10:06:42.662Z,32.38
2018-05-03T10:09:10.302Z,31.89
2018-05-03T10:11:37.925Z,31.41
2018-05-03T10:14:05.486Z,31.49
2018-05-03T10:16:33.048Z,31.56
2018-05-03T10:19:00.678Z,31.68
2018-05-03T10:21:28.292Z,31.75
2018-05-03T10:23:55.912Z,31.78
2018-05-03T10:26:23.529Z,31.94
2018-05-03T10:28:51.109Z,31.88
2018-05-03T10:31:18.649Z,31.99
2018-05-03T10:33:46.273Z,32.30
2018-05-03T10:36:13.959Z,32.69
2018-05-03T10:38:41.541Z,33.01
2018-05-03T10:41:09.100Z,33.50
2018-05-03T10:43:36.745Z,33.70
2018-05-03T10:46:04.345Z,33.98
2018-05-03T10:48:31.916Z,34.62
2018-05-03T10:50:59.484Z,35.02
2018-05-03T10:53:27.121Z,35.12
2018-05-03T10:55:54.676Z,35.21
2018-05-03T10:58:22.253Z,35.20
2018-05-03T11:00:49.808Z,35.29
2018-05-03T11:03:17.488Z,35.21
2018-05-03T11:05:45.068Z,35.62
2018-05-03T11:08:12.785Z,36.01
2018-05-03T11:10:40.345Z,36.17
2018-05-03T11:13:07.903Z,37.01
2018-05-03T11:15:35.469Z,37.16
2018-05-03T11:18:03.020Z,37.49
2018-05-03T11:20:30.597Z,38.13
2018-05-03T11:22:58.216Z,38.12
2018-05-03T11:25:25.902Z,37.80
2018-05-03T11:27:53.556Z,37.12
2018-05-03T11:30:21.116Z,37.34
2018-05-03T11:32:48.696Z,37.76
2018-05-03T11:35:16.263Z,38.05
2018-05-03T11:37:43.893Z,38.10
2018-05-03T11:40:11.461Z,38.23
2018-05-03T11:42:39.182Z,38.56
2018-05-03T11:45:06.717Z,38.96
2018-05-03T11:47:34.329Z,38.94
2018-05-03T11:50:01.953Z,38.99
2018-05-03T11:52:29.512Z,38.87
2018-05-03T11:54:57.137Z,38.43
2018-05-03T11:57:24.782Z,38.75
2018-05-03T11:59:52.392Z,39.25
2018-05-03T12:02:19.949Z,39.22
2018-05-03T12:04:47.569Z,39.12
2018-05-03T12:07:15.132Z,39.10
2018-05-03T12:09:42.684Z,39.34
2018-05-03T12:12:10.245Z,38.71
2018-05-03T12:14:37.807Z,38.47
2018-05-03T12:17:05.480Z,38.84
2018-05-03T12:19:33.055Z,39.65
2018-05-03T12:22:00.623Z,40.11
2018-05-03T12:24:28.229Z,39.87
2018-05-03T12:26:55.780Z,40.29
2018-05-03T12:29:23.405Z,40.29
2018-05-03T12:31:50.952Z,40.36
2018-05-03T12:34:18.569Z,39.89
2018-05-03T12:36:46.128Z,40.63
2018-05-03T12:39:13.684Z,40.54
2018-05-03T12:41:41.245Z,40.51
2018-05-03T12:44:08.863Z,40.16
2018-05-03T12:46:36.424Z,39.92
2018-05-03T12:49:03.984Z,39.57
2018-05-03T12:51:31.668Z,39.19
2018-05-03T12:53:59.238Z,39.20
2018-05-03T12:56:26.800Z,39.16
2018-05-03T12:58:54.380Z,39.69
2018-05-03T13:01:21.936Z,40.19
2018-05-03T13:03:49.552Z,40.51
2018-05-03T13:06:17.112Z,40.26
2018-05-03T13:08:44.672Z,39.74
2018-05-03T13:11:12.247Z,39.29
2018-05-03T13:13:39.804Z,39.24
2018-05-03T13:16:07.373Z,38.75
2018-05-03T13:18:34.916Z,37.82
2018-05-03T13:21:02.528Z,37.49
2018-05-03T13:23:30.100Z,37.48
2018-05-03T13:25:57.722Z,37.50
2018-05-03T13:28:25.292Z,38.02
2018-05-03T13:30:52.857Z,37.74
2018-05-03T13:33:20.424Z,36.51
2018-05-03T13:35:47.985Z,35.72
2018-05-03T13:38:15.605Z,35.46
2018-05-03T13:40:43.264Z,35.57
2018-05-03T13:43:10.888Z,36.03
2018-05-03T13:45:38.432Z,36.47
2018-05-03T13:48:06.021Z,37.25
2018-05-03T13:50:33.589Z,37.71
2018-05-03T13:53:01.144Z,37.30
2018-05-03T13:55:28.860Z,36.92
2018-05-03T13:57:56.417Z,35.97
2018-05-03T14:00:24.041Z,35.05
2018-05-03T14:02:51.624Z,34.19
2018-05-03T14:05:19.254Z,33.82
2018-05-03T14:07:46.820Z,33.34
2018-05-03T14:10:14.375Z,32.77
2018-05-03T14:12:42.064Z,32.59
2018-05-03T14:15:09.694Z,32.19
2018-05-03T14:17:37.252Z,32.21
2018-05-03T14:20:04.849Z,32.16
2018-05-03T14:22:32.420Z,31.94
2018-05-03T14:25:00.003Z,31.77
2018-05-03T14:27:27.561Z,31.67
2018-05-03T14:29:55.186Z,31.39
2018-05-03T14:32:22.740Z,31.26
2018-05-03T14:34:50.301Z,31.01
2018-05-03T14:37:17.942Z,30.88
2018-05-03T14:39:45.500Z,30.76
2018-05-03T14:42:13.069Z,30.57
2018-05-03T14:44:40.629Z,30.46
2018-05-03T14:47:08.266Z,30.27
2018-05-03T14:49:35.805Z,30.09
2018-05-03T14:52:03.360Z,30.01
2018-05-03T14:54:30.925Z,29.99
2018-05-03T14:56:58.504Z,29.95
2018-05-03T14:59:26.068Z,29.95
2018-05-03T15:01:53.629Z,29.87
2018-05-03T15:04:21.244Z,29.76
2018-05-03T15:06:48.805Z,29.68
2018-05-03T15:09:16.376Z,29.65
2018-05-03T15:11:43.965Z,29.62
2018-05-03T15:14:11.546Z,29.59
2018-05-03T15:16:39.090Z,29.55
2018-05-03T15:19:06.709Z,29.48
2018-05-03T15:21:34.429Z,29.36
2018-05-03T15:24:01.989Z,29.29
2018-05-03T15:26:29.610Z,29.23
2018-05-03T15:28:57.184Z,29.12
2018-05-03T15:31:24.741Z,29.06
2018-05-03T15:33:52.450Z,29.03
2018-05-03T15:36:19.972Z,28.96
2018-05-03T15:38:53.120Z,28.90
2018-05-03T15:41:20.670Z,28.83
2018-05-03T15:43:48.270Z,28.72
2018-05-03T15:46:15.837Z,28.61
2018-05-03T15:48:43.397Z,28.53
2018-05-03T15:51:11.022Z,28.37
2018-05-03T15:53:38.588Z,28.24
2018-05-03T15:56:06.220Z,28.14
2018-05-03T15:58:33.805Z,28.09
2018-05-03T16:01:01.364Z,28.00
2018-05-03T16:03:28.955Z,27.90
2018-05-03T16:05:56.515Z,27.86
2018-05-03T16:08:24.089Z,27.82
2018-05-03T16:10:51.710Z,27.75
2018-05-03T16:13:19.324Z,27.65
2018-05-03T16:15:46.900Z,27.58
2018-05-03T16:18:14.470Z,27.53
2018-05-03T16:20:42.043Z,27.43
2018-05-03T16:23:09.590Z,27.33
2018-05-03T16:25:37.161Z,27.19
2018-05-03T16:28:04.720Z,27.09
2018-05-03T16:30:32.398Z,26.93
2018-05-03T16:32:59.956Z,26.74
2018-05-03T16:35:27.601Z,26.60
2018-05-03T16:37:55.177Z,26.47
2018-05-03T16:40:22.746Z,26.34
2018-05-03T16:42:50.318Z,26.17
2018-05-03T16:45:17.872Z,26.01
2018-05-03T16:47:45.455Z,25.82
2018-05-03T16:50:13.025Z,25.62
2018-05-03T16:52:40.584Z,25.42
2018-05-03T16:55:08.160Z,25.33
2018-05-03T16:57:35.720Z,25.10
2018-05-03T17:00:03.339Z,24.95
2018-05-03T17:02:30.960Z,24.82
2018-05-03T17:04:58.579Z,24.66
2018-05-03T17:07:26.209Z,24.54
2018-05-03T17:09:53.751Z,24.41
2018-05-03T17:12:21.412Z,24.28
2018-05-03T17:14:48.976Z,24.17
2018-05-03T17:17:16.649Z,24.11
2018-05-03T17:19:44.208Z,24.05
2018-05-03T17:22:11.767Z,23.96
2018-05-03T17:24:39.342Z,23.85
2018-05-03T17:27:06.925Z,23.72
2018-05-03T17:29:34.497Z,23.55
2018-05-03T17:32:02.113Z,23.45
2018-05-03T17:34:29.728Z,23.36
2018-05-03T17:36:57.349Z,23.37
2018-05-03T17:39:24.932Z,23.27
2018-05-03T17:41:52.525Z,23.17
2018-05-03T17:44:20.215Z,23.08
2018-05-03T17:46:47.784Z,23.00
2018-05-03T17:49:15.336Z,22.91
2018-05-03T17:51:42.953Z,22.85
2018-05-03T17:54:10.512Z,22.79
2018-05-03T17:56:38.080Z,22.71
2018-05-03T17:59:05.644Z,22.63
2018-05-03T18:01:33.229Z,22.56
2018-05-03T18:04:00.797Z,22.44
2018-05-03T18:06:28.353Z,22.31
2018-05-03T18:08:56.033Z,22.28
2018-05-03T18:11:23.596Z,22.23
2018-05-03T18:13:51.217Z,22.26
2018-05-03T18:16:18.796Z,22.14
2018-05-03T18:18:46.360Z,22.20
2018-05-03T18:21:13.935Z,22.21
2018-05-03T18:23:41.561Z,22.15
2018-05-03T18:26:09.216Z,22.12
2018-05-03T18:28:36.781Z,22.09
2018-05-03T18:31:04.344Z,22.02
2018-05-03T18:33:31.973Z,21.95
2018-05-03T18:35:59.592Z,21.89
2018-05-03T18:38:27.226Z,21.79
2018-05-03T18:40:54.796Z,21.75
2018-05-03T18:43:22.409Z,21.70
2018-05-03T18:45:49.976Z,21.63
2018-05-03T18:48:17.615Z,21.56
2018-05-03T18:50:45.250Z,21.53
2018-05-03T18:53:12.818Z,21.54
2018-05-03T18:55:40.379Z,21.49
2018-05-03T18:58:07.984Z,21.46
2018-05-03T19:00:35.544Z,21.39
2018-05-03T19:03:03.133Z,21.32
2018-05-03T19:05:30.688Z,21.27
2018-05-03T19:07:58.318Z,21.18
2018-05-03T19:10:25.880Z,21.05
2018-05-03T19:12:53.497Z,20.92
2018-05-03T19:15:21.126Z,20.81
2018-05-03T19:17:48.816Z,20.74
2018-05-03T19:20:16.398Z,20.68
2018-05-03T19:22:44.018Z,20.61
2018-05-03T19:25:11.639Z,20.57
2018-05-03T19:27:39.278Z,20.48
2018-05-03T19:30:06.895Z,20.39
2018-05-03T19:32:34.456Z,20.29
2018-05-03T19:35:02.073Z,20.16
2018-05-03T19:37:29.701Z,20.05
2018-05-03T19:39:57.262Z,19.94
2018-05-03T19:42:24.876Z,19.80
2018-05-03T19:44:52.503Z,19.66
2018-05-03T19:47:20.061Z,19.58
2018-05-03T19:49:47.629Z,19.55
2018-05-03T19:52:15.220Z,19.44
2018-05-03T19:54:42.849Z,19.37
2018-05-03T19:57:10.422Z,19.35
2018-05-03T19:59:38.037Z,19.31
2018-05-03T20:02:05.614Z,19.27
2018-05-03T20:04:33.174Z,19.18
2018-05-03T20:07:00.747Z,19.12
2018-05-03T20:09:28.373Z,19.09
2018-05-03T20:11:55.944Z,19.02
2018-05-03T20:14:23.499Z,18.99
2018-05-03T20:16:51.129Z,18.94
2018-05-03T20:19:18.752Z,18.91
2018-05-03T20:21:46.370Z,18.87
2018-05-03T20:24:13.945Z,18.85
2018-05-03T20:26:41.505Z,18.87
2018-05-03T20:29:09.077Z,18.83
2018-05-03T20:31:36.645Z,18.84
2018-05-03T20:34:04.264Z,18.81
2018-05-03T20:36:31.887Z,18.82
2018-05-03T20:38:59.499Z,18.82
2018-05-03T20:41:27.060Z,18.82
2018-05-03T20:43:54.692Z,18.81
2018-05-03T20:46:22.264Z,18.80
2018-05-03T20:48:49.829Z,18.76
2018-05-03T20:51:17.470Z,18.72
2018-05-03T20:53:45.040Z,18.66
2018-05-03T20:56:12.609Z,18.60
2018-05-03T20:58:40.244Z,18.57
2018-05-03T21:01:07.866Z,18.54
2018-05-03T21:03:35.433Z,18.48
2018-05-03T21:06:02.992Z,18.42
2018-05-03T21:08:30.679Z,18.33
2018-05-03T21:10:58.236Z,18.25
2018-05-03T21:13:25.856Z,18.21
2018-05-03T21:15:53.442Z,18.18
2018-05-03T21:18:21.008Z,18.13
2018-05-03T21:20:48.585Z,18.10
2018-05-03T21:23:16.158Z,18.10
2018-05-03T21:25:43.776Z,18.08
2018-05-03T21:28:11.322Z,18.07
2018-05-03T21:30:38.887Z,18.09
2018-05-03T21:33:06.479Z,18.15
2018-05-03T21:35:34.047Z,18.12
2018-05-03T21:38:01.617Z,18.05
2018-05-03T21:40:29.241Z,17.97
2018-05-03T21:42:56.869Z,17.87
2018-05-03T21:45:24.429Z,17.79
2018-05-03T21:47:51.985Z,17.68
2018-05-03T21:50:19.552Z,17.61
2018-05-03T21:52:47.119Z,17.53
2018-05-03T21:55:14.745Z,17.44
2018-05-03T21:57:42.368Z,17.31
2018-05-03T22:00:10.041Z,17.21
2018-05-03T22:02:37.600Z,17.15
2018-05-03T22:05:05.166Z,17.09
2018-05-03T22:07:32.804Z,17.03
2018-05-03T22:10:00.365Z,17.03
2018-05-03T22:12:28.029Z,17.01
2018-05-03T22:14:55.588Z,17.00
2018-05-03T22:17:23.164Z,16.99
2018-05-03T22:19:50.733Z,16.99
2018-05-03T22:22:18.320Z,16.95
2018-05-03T22:24:45.896Z,16.94
2018-05-03T22:27:13.528Z,16.91
2018-05-03T22:29:41.160Z,16.92
2018-05-03T22:32:08.762Z,16.89
2018-05-03T22:34:36.320Z,16.86
2018-05-03T22:37:03.944Z,16.80
2018-05-03T22:39:31.562Z,16.75
2018-05-03T22:41:59.151Z,16.71
2018-05-03T22:44:26.780Z,16.66
2018-05-03T22:46:54.474Z,16.62
2018-05-03T22:49:22.131Z,16.56
2018-05-03T22:51:49.793Z,16.52
2018-05-03T22:54:17.368Z,16.51
2018-05-03T22:56:44.977Z,16.46
2018-05-03T22:59:12.552Z,16.40
2018-05-03T23:01:40.120Z,16.34
2018-05-03T23:04:07.801Z,16.29
2018-05-03T23:06:35.356Z,16.26
2018-05-03T23:09:02.982Z,16.21
2018-05-03T23:11:30.626Z,16.21
2018-05-03T23:13:58.296Z,16.20
2018-05-03T23:16:25.869Z,16.15
2018-05-03T23:18:53.432Z,16.12
2018-05-03T23:21:21.045Z,16.06
2018-05-03T23:23:48.609Z,16.04
2018-05-03T23:26:16.168Z,16.01
2018-05-03T23:28:43.796Z,16.00
2018-05-03T23:31:11.357Z,15.97
2018-05-03T23:36:12.698Z,15.89
2018-05-03T23:38:40.344Z,15.83
2018-05-03T23:41:07.904Z,15.78
2018-05-03T23:43:35.464Z,15.72
2018-05-03T23:46:03.088Z,15.66
2018-05-03T23:48:30.709Z,15.64
2018-05-03T23:50:58.334Z,15.65
2018-05-03T23:53:25.876Z,15.67
2018-05-03T23:55:53.584Z,15.65
2018-05-03T23:58:21.168Z,15.63
